.
WxDataArchive / Data Records for 2007-09-23
2007-09-22 September 2007 2007-09-24

Data Records for Sunday, 23 September 2007

Time	Temp	Chill	HIndex	Humid	Dewpt	 Wind 	HiWind	WindDir	Rain 	Barom 
-----	----	-----	------	-----	-----	------	------	-------	-----	----- 
00:00	51.1	51.1	51.1	91	48.6	0	0	---	0.00	30.137 
00:05	51.1	51.1	51.1	90	48.3	0	0	---	0.00	30.141 
00:10	51.1	51.1	51.1	89	48.0	0	0	---	0.00	30.140 
00:15	51.1	51.1	51.1	88	47.7	0	0	---	0.00	30.142 
00:20	51.0	51.0	51.0	88	47.6	0	0	---	0.00	30.142 
00:25	51.0	51.0	51.0	88	47.6	0	0	---	0.00	30.143 
00:30	51.1	51.1	51.1	88	47.7	0	0	---	0.00	30.142 
00:35	51.1	51.1	51.1	87	47.4	0	0	---	0.00	30.145 
00:40	51.3	51.3	51.3	87	47.6	0	0	---	0.00	30.146 
00:45	51.4	51.4	51.4	86	47.4	0	0	---	0.00	30.146 
00:50	51.3	51.3	51.3	86	47.3	0	0	---	0.00	30.146 
00:55	51.3	51.3	51.3	85	46.9	0	0	---	0.00	30.148 
01:00	51.3	51.3	51.3	85	46.9	0	0	---	0.00	30.149 
01:05	51.3	51.3	51.3	84	46.6	0	0	---	0.00	30.147 
01:10	51.6	51.6	51.6	84	46.9	0	0	---	0.00	30.147 
01:15	51.6	51.6	51.6	83	46.6	0	0	---	0.00	30.148 
01:20	51.7	51.7	51.7	82	46.4	0	0	---	0.00	30.149 
01:25	51.7	51.7	51.7	82	46.4	0	0	---	0.00	30.151 
01:30	51.7	51.7	51.7	82	46.4	0	0	---	0.00	30.149 
01:35	51.6	51.6	51.6	82	46.3	0	0	---	0.00	30.148 
01:40	51.4	51.4	51.4	82	46.1	0	0	---	0.00	30.150 
01:45	51.4	51.4	51.4	82	46.1	0	0	---	0.00	30.151 
01:50	51.3	51.3	51.3	83	46.3	0	0	---	0.00	30.153 
01:55	51.1	51.1	51.1	83	46.1	0	0	---	0.00	30.153 
02:00	51.0	51.0	51.0	83	46.0	0	0	---	0.00	30.151 
02:05	50.8	50.8	50.8	84	46.1	0	0	---	0.00	30.151 
02:10	50.5	50.5	50.5	84	45.8	0	0	---	0.00	30.151 
02:15	50.4	50.4	50.4	84	45.7	0	0	---	0.00	30.156 
02:20	50.2	50.2	50.2	85	45.9	0	0	---	0.00	30.157 
02:25	50.1	50.1	50.1	85	45.8	0	0	---	0.00	30.161 
02:30	49.9	49.9	49.9	86	45.9	0	0	---	0.00	30.159 
02:35	49.6	49.6	49.6	86	45.6	0	0	---	0.00	30.160 
02:40	49.5	49.5	49.5	87	45.8	0	0	---	0.00	30.160 
02:45	49.4	49.4	49.4	88	46.0	0	0	---	0.00	30.162 
02:50	49.1	49.1	49.1	88	45.7	0	0	---	0.00	30.163 
02:55	48.9	48.9	48.9	88	45.5	0	0	---	0.00	30.162 
03:00	48.8	48.8	48.8	89	45.7	0	0	---	0.00	30.162 
03:05	48.6	48.6	48.6	90	45.8	0	0	---	0.00	30.163 
03:10	48.5	48.5	48.5	90	45.7	0	0	---	0.00	30.164 
03:15	48.3	48.3	48.3	90	45.5	0	0	---	0.00	30.166 
03:20	48.2	48.2	48.2	90	45.4	0	0	---	0.00	30.166 
03:25	48.0	48.0	48.0	91	45.5	0	0	---	0.00	30.165 
03:30	47.9	47.9	47.9	91	45.4	0	0	---	0.00	30.166 
03:35	47.7	47.7	47.7	91	45.2	0	0	---	0.00	30.166 
03:40	47.7	47.7	47.7	91	45.2	0	0	---	0.00	30.167 
03:45	47.6	47.6	47.6	91	45.1	0	0	---	0.00	30.169 
03:50	47.4	47.4	47.4	91	44.9	0	0	---	0.00	30.171 
03:55	47.3	47.3	47.3	92	45.1	0	0	---	0.00	30.170 
04:00	47.1	47.1	47.1	92	44.9	0	0	---	0.00	30.170 
04:05	47.0	47.0	47.0	92	44.8	0	0	---	0.00	30.170 
04:10	47.0	47.0	47.0	92	44.8	0	0	---	0.00	30.173 
04:15	46.8	46.8	46.8	92	44.6	0	0	---	0.00	30.177 
04:20	46.8	46.8	46.8	93	44.9	0	0	---	0.00	30.176 
04:25	46.7	46.7	46.7	93	44.8	0	0	---	0.00	30.179 
04:30	46.5	46.5	46.5	93	44.6	0	0	---	0.00	30.181 
04:35	46.5	46.5	46.5	93	44.6	0	0	---	0.00	30.181 
04:40	46.4	46.4	46.4	93	44.5	0	0	---	0.00	30.183 
04:45	46.2	46.2	46.2	93	44.3	0	0	---	0.00	30.184 
04:50	46.1	46.1	46.1	94	44.5	0	0	---	0.00	30.182 
04:55	46.1	46.1	46.1	94	44.5	0	0	---	0.00	30.181 
05:00	46.0	46.0	46.0	94	44.4	0	0	---	0.00	30.183 
05:05	46.0	46.0	46.0	94	44.4	0	0	---	0.00	30.186 
05:10	45.8	45.8	45.8	94	44.2	0	0	---	0.00	30.187 
05:15	45.8	45.8	45.8	94	44.2	0	0	---	0.00	30.190 
05:20	45.8	45.8	45.8	94	44.2	0	0	---	0.00	30.191 
05:25	45.7	45.7	45.7	94	44.1	0	0	---	0.00	30.195 
05:30	45.7	45.7	45.7	95	44.4	0	0	---	0.00	30.197 
05:35	45.7	45.7	45.7	95	44.4	0	0	---	0.00	30.199 
05:40	45.7	45.7	45.7	95	44.4	0	0	---	0.00	30.199 
05:45	45.8	45.8	45.8	95	44.4	0	0	---	0.00	30.200 
05:50	45.8	45.8	45.8	95	44.4	0	0	---	0.00	30.201 
05:55	46.0	46.0	46.0	95	44.6	0	0	---	0.00	30.203 
06:00	46.0	46.0	46.0	95	44.6	0	0	---	0.00	30.204 
06:05	46.0	46.0	46.0	96	44.9	0	0	---	0.00	30.210 
06:10	45.8	45.8	45.8	95	44.4	0	0	---	0.00	30.211 
06:15	46.0	46.0	46.0	96	44.9	0	0	---	0.00	30.215 
06:20	46.0	46.0	46.0	96	44.9	0	0	---	0.00	30.219 
06:25	46.2	46.2	46.2	96	45.1	0	0	---	0.00	30.221 
06:30	46.4	46.4	46.4	96	45.3	0	0	---	0.00	30.223 
06:35	46.5	46.5	46.5	96	45.4	0	0	---	0.00	30.223 
06:40	47.1	47.1	47.1	96	46.0	0	2	292	0.00	30.224 
06:45	47.4	47.4	47.4	96	46.3	0	1	292	0.00	30.225 
06:50	47.9	47.9	47.9	96	46.8	0	0	---	0.00	30.226 
06:55	48.0	48.0	48.0	96	46.9	0	1	292	0.00	30.228 
07:00	48.6	48.6	48.6	96	47.5	0	1	292	0.00	30.225 
07:05	49.4	49.4	49.4	96	48.3	0	2	292	0.00	30.234 
07:10	50.2	50.2	50.2	95	48.8	0	1	292	0.00	30.232 
07:15	51.3	51.3	51.3	91	48.8	0	2	292	0.00	30.234 
07:20	52.3	52.3	52.3	86	48.2	0	2	292	0.00	30.235 
07:25	53.3	53.3	53.3	81	47.6	1	2	292	0.00	30.233 
07:30	53.8	53.8	53.8	79	47.4	1	3	112	0.00	30.235 
07:35	54.2	54.2	54.2	78	47.5	1	3	112	0.00	30.237 
07:40	54.5	54.5	54.5	78	47.8	0	3	112	0.00	30.236 
07:45	54.8	54.8	54.8	77	47.7	1	3	90	0.00	30.236 
07:50	55.3	55.3	55.3	76	47.9	1	4	90	0.00	30.237 
07:55	55.7	55.7	55.7	76	48.3	1	4	112	0.00	30.237 
08:00	56.2	56.2	56.2	75	48.4	2	4	112	0.00	30.240 
08:05	56.5	56.5	56.5	74	48.3	2	6	90	0.00	30.244 
08:10	56.7	56.7	56.7	73	48.1	2	7	90	0.00	30.245 
08:15	57.2	57.2	57.2	74	49.0	2	5	90	0.00	30.248 
08:20	57.3	57.3	57.3	74	49.1	1	4	112	0.00	30.251 
08:25	57.8	57.8	57.8	76	50.3	1	3	90	0.00	30.248 
08:30	58.3	58.3	58.3	75	50.4	1	3	90	0.00	30.250 
08:35	58.7	58.7	58.7	74	50.4	1	4	90	0.00	30.251 
08:40	59.0	59.0	59.0	73	50.4	1	3	90	0.00	30.252 
08:45	59.6	59.6	59.6	73	50.9	2	5	112	0.00	30.251 
08:50	60.4	60.4	60.4	71	50.9	1	3	90	0.00	30.252 
08:55	61.3	61.3	61.3	71	51.8	1	3	90	0.00	30.251 
09:00	62.3	62.3	62.3	69	52.0	2	3	90	0.00	30.250 
09:05	62.7	62.7	62.7	68	52.0	2	4	90	0.00	30.251 
09:10	63.4	63.4	63.4	67	52.2	2	5	90	0.00	30.252 
09:15	63.9	63.9	63.9	67	52.7	1	4	90	0.00	30.250 
09:20	64.5	64.5	64.5	65	52.5	2	4	90	0.00	30.250 
09:25	65.2	65.2	65.2	64	52.7	2	4	68	0.00	30.249 
09:30	65.6	65.6	65.6	64	53.1	2	4	90	0.00	30.246 
09:35	65.8	65.8	65.8	64	53.3	3	6	90	0.00	30.246 
09:40	66.8	66.8	66.8	64	54.2	2	5	90	0.00	30.246 
09:45	67.4	67.4	67.4	60	53.0	2	6	90	0.00	30.245 
09:50	68.3	68.3	68.3	60	53.9	2	6	90	0.00	30.243 
09:55	68.6	68.6	68.6	57	52.7	3	5	90	0.00	30.243 
10:00	69.1	69.1	69.1	56	52.7	3	5	90	0.00	30.242 
10:05	69.3	69.3	69.3	53	51.4	4	9	90	0.00	30.245 
10:10	69.6	69.6	69.6	53	51.7	4	8	90	0.00	30.243 
10:15	69.9	69.9	69.9	53	52.0	3	9	90	0.00	30.240 
10:20	70.9	70.9	70.9	52	52.4	2	5	90	0.00	30.239 
10:25	71.6	71.6	71.6	50	52.0	2	6	90	0.00	30.236 
10:30	71.8	71.8	71.8	48	51.0	4	6	90	0.00	30.234 
10:35	72.1	72.1	72.1	46	50.2	2	7	112	0.00	30.236 
10:40	72.3	72.3	72.3	44	49.2	3	9	90	0.00	30.234 
10:45	72.7	72.7	72.7	46	50.7	3	11	90	0.00	30.234 
10:50	73.2	73.2	73.2	45	50.6	2	5	112	0.00	30.234 
10:55	73.7	73.7	73.7	43	49.8	3	7	90	0.00	30.230 
11:00	73.9	73.9	73.9	42	49.3	3	6	90	0.00	30.228 
11:05	73.9	73.9	73.9	43	50.0	3	9	90	0.00	30.228 
11:10	74.0	74.0	74.0	43	50.1	3	6	90	0.00	30.227 
11:15	74.2	74.2	74.2	42	49.6	3	6	90	0.00	30.227 
11:20	74.7	74.7	74.7	40	48.8	2	6	90	0.00	30.225 
11:25	75.3	75.3	77.6	41	50.0	1	4	90	0.00	30.222 
11:30	76.0	76.0	77.8	40	49.9	2	5	112	0.00	30.220 
11:35	76.5	76.5	78.0	39	49.7	2	5	90	0.00	30.214 
11:40	76.8	76.8	78.0	38	49.2	2	5	90	0.00	30.213 
11:45	76.8	76.8	78.0	38	49.2	2	7	90	0.00	30.213 
11:50	77.0	77.0	78.2	39	50.1	2	6	112	0.00	30.212 
11:55	77.0	77.0	78.2	39	50.1	3	6	90	0.00	30.212 
12:00	77.2	77.2	78.1	36	48.2	2	5	90	0.00	30.210 
12:05	77.2	77.2	78.2	38	49.6	3	5	135	0.00	30.210 
12:10	77.7	77.7	78.5	39	50.7	1	2	135	0.00	30.208 
12:15	78.5	78.5	78.7	36	49.3	1	3	112	0.00	30.207 
12:20	78.6	78.6	78.7	34	47.9	2	6	90	0.00	30.203 
12:25	78.6	78.6	78.9	37	50.1	2	5	90	0.00	30.201 
12:30	78.8	78.8	78.9	36	49.6	1	4	90	0.00	30.201 
12:35	78.8	78.8	78.6	32	46.4	3	5	112	0.00	30.200 
12:40	78.6	78.6	78.7	35	48.6	2	5	90	0.00	30.199 
12:45	78.8	78.8	78.8	35	48.8	2	6	90	0.00	30.198 
12:50	79.2	79.2	79.0	34	48.4	1	2	112	0.00	30.194 
12:55	79.2	79.2	78.9	33	47.6	2	6	90	0.00	30.192 
13:00	79.6	79.6	79.2	34	48.7	1	4	112	0.00	30.190 
13:05	79.9	79.9	79.2	31	46.5	2	6	90	0.00	30.191 
13:10	79.6	79.6	79.1	32	47.1	3	6	90	0.00	30.190 
13:15	79.0	79.0	78.8	33	47.4	2	7	90	0.00	30.185 
13:20	79.2	79.2	78.7	30	45.1	1	5	68	0.00	30.179 
13:25	79.4	79.4	78.9	31	46.1	2	4	68	0.00	30.178 
13:30	79.9	79.9	79.2	31	46.5	1	4	112	0.00	30.177 
13:35	80.1	80.1	79.3	31	46.7	1	4	112	0.00	30.176 
13:40	80.3	80.3	79.3	29	45.1	2	6	90	0.00	30.175 
13:45	80.5	80.5	79.5	30	46.2	1	3	112	0.00	30.172 
13:50	80.9	80.9	79.6	28	44.7	1	4	112	0.00	30.171 
13:55	80.9	80.9	79.7	29	45.6	2	7	90	0.00	30.172 
14:00	81.1	81.1	79.7	27	43.9	1	3	90	0.00	30.168 
14:05	81.2	81.2	79.9	30	46.8	1	4	135	0.00	30.167 
14:10	81.2	81.2	79.8	28	45.0	2	4	112	0.00	30.165 
14:15	81.2	81.2	79.8	28	45.0	2	5	112	0.00	30.164 
14:20	81.1	81.1	79.7	28	44.9	3	6	90	0.00	30.162 
14:25	80.9	80.9	79.5	27	43.8	2	5	90	0.00	30.161 
14:30	81.1	81.1	79.7	28	44.9	2	5	90	0.00	30.159 
14:35	81.1	81.1	79.7	28	44.9	2	4	90	0.00	30.159 
14:40	81.2	81.2	79.7	27	44.0	2	7	90	0.00	30.157 
14:45	81.4	81.4	79.9	27	44.2	2	5	112	0.00	30.156 
14:50	81.6	81.6	80.0	27	44.4	1	5	158	0.00	30.153 
14:55	82.0	82.0	80.3	27	44.7	1	3	112	0.00	30.149 
15:00	82.2	82.2	80.3	26	43.9	2	6	90	0.00	30.148 
15:05	82.2	82.2	80.3	25	42.9	1	5	112	0.00	30.147 
15:10	82.2	82.2	80.4	27	44.9	2	4	112	0.00	30.148 
15:15	82.0	82.0	80.3	28	45.7	2	9	112	0.00	30.148 
15:20	82.2	82.2	80.4	27	44.9	1	5	112	0.00	30.147 
15:25	82.2	82.2	80.3	26	43.9	2	5	112	0.00	30.147 
15:30	82.0	82.0	80.2	26	43.7	2	5	90	0.00	30.146 
15:35	82.0	82.0	80.3	28	45.7	1	4	68	0.00	30.146 
15:40	81.8	81.8	80.1	26	43.5	3	5	90	0.00	30.144 
15:45	81.8	81.8	80.1	26	43.5	2	4	68	0.00	30.144 
15:50	81.6	81.6	79.9	25	42.3	2	6	90	0.00	30.143 
15:55	81.6	81.6	79.9	26	43.4	2	5	90	0.00	30.142 
16:00	81.6	81.6	80.0	27	44.4	2	4	90	0.00	30.137 
16:05	81.6	81.6	79.9	26	43.4	2	5	90	0.00	30.138 
16:10	81.6	81.6	79.9	25	42.3	2	5	90	0.00	30.137 
16:15	81.6	81.6	79.9	25	42.3	2	5	90	0.00	30.135 
16:20	81.4	81.4	79.8	26	43.2	1	3	135	0.00	30.137 
16:25	81.4	81.4	79.7	25	42.2	1	4	135	0.00	30.135 
16:30	81.4	81.4	79.9	27	44.2	1	4	90	0.00	30.133 
16:35	81.4	81.4	79.8	26	43.2	2	5	112	0.00	30.133 
16:40	81.2	81.2	79.6	25	42.0	1	3	90	0.00	30.134 
16:45	81.1	81.1	79.6	26	42.9	1	4	90	0.00	30.133 
16:50	81.1	81.1	79.6	26	42.9	2	4	90	0.00	30.133 
16:55	80.9	80.9	79.4	25	41.8	1	4	112	0.00	30.133 
17:00	80.9	80.9	79.5	26	42.8	1	3	90	0.00	30.132 
17:05	80.7	80.7	79.4	26	42.6	2	4	90	0.00	30.132 
17:10	80.5	80.5	79.2	26	42.4	1	2	90	0.00	30.132 
17:15	80.3	80.3	79.1	26	42.3	1	3	90	0.00	30.131 
17:20	80.3	80.3	79.1	26	42.3	1	4	68	0.00	30.132 
17:25	80.1	80.1	79.1	27	43.1	0	2	68	0.00	30.131 
17:30	79.9	79.9	79.0	28	43.9	0	1	68	0.00	30.128 
17:35	79.6	79.6	78.8	27	42.7	1	4	68	0.00	30.126 
17:40	79.4	79.4	78.7	28	43.4	1	3	68	0.00	30.128 
17:45	79.2	79.2	78.6	28	43.3	1	4	68	0.00	30.128 
17:50	79.0	79.0	78.4	27	42.1	0	3	68	0.00	30.128 
17:55	78.6	78.6	78.3	28	42.7	0	2	68	0.00	30.126 
18:00	78.3	78.3	78.3	30	44.3	0	1	68	0.00	30.124 
18:05	77.9	77.9	78.1	31	44.8	0	0	---	0.00	30.122 
18:10	77.2	77.2	77.8	31	44.2	0	1	68	0.00	30.122 
18:15	76.7	76.7	77.7	33	45.4	0	0	---	0.00	30.122 
18:20	75.8	75.8	77.5	35	46.2	0	0	---	0.00	30.123 
18:25	74.9	74.9	74.9	36	46.1	0	0	---	0.00	30.120 
18:30	74.2	74.2	74.2	37	46.2	0	0	---	0.00	30.121 
18:35	73.3	73.3	73.3	38	46.1	0	0	---	0.00	30.122 
18:40	72.7	72.7	72.7	40	47.0	0	0	---	0.00	30.121 
18:45	72.1	72.1	72.1	41	47.1	0	0	---	0.00	30.123 
18:50	71.5	71.5	71.5	42	47.2	0	0	---	0.00	30.125 
18:55	70.8	70.8	70.8	43	47.2	0	0	---	0.00	30.126 
19:00	70.3	70.3	70.3	44	47.3	0	0	---	0.00	30.128 
19:05	69.6	69.6	69.6	46	47.9	0	0	---	0.00	30.122 
19:10	69.1	69.1	69.1	47	48.0	0	0	---	0.00	30.123 
19:15	68.4	68.4	68.4	48	47.9	0	0	---	0.00	30.121 
19:20	68.1	68.1	68.1	48	47.7	0	0	---	0.00	30.121 
19:25	67.6	67.6	67.6	48	47.2	0	0	---	0.00	30.121 
19:30	67.3	67.3	67.3	49	47.5	0	0	---	0.00	30.122 
19:35	66.9	66.9	66.9	49	47.1	0	0	---	0.00	30.125 
19:40	66.4	66.4	66.4	50	47.2	0	0	---	0.00	30.125 
19:45	66.1	66.1	66.1	50	46.9	0	0	---	0.00	30.126 
19:50	65.8	65.8	65.8	51	47.2	0	0	---	0.00	30.125 
19:55	65.5	65.5	65.5	51	46.9	0	0	---	0.00	30.125 
20:00	65.2	65.2	65.2	51	46.6	0	0	---	0.00	30.127 
20:05	64.8	64.8	64.8	51	46.2	0	0	---	0.00	30.122 
20:10	64.7	64.7	64.7	52	46.7	0	0	---	0.00	30.125 
20:15	64.5	64.5	64.5	52	46.5	0	0	---	0.00	30.125 
20:20	64.3	64.3	64.3	53	46.8	0	0	---	0.00	30.127 
20:25	64.2	64.2	64.2	52	46.2	0	0	---	0.00	30.128 
20:30	64.2	64.2	64.2	51	45.7	0	0	---	0.00	30.131 
20:35	64.2	64.2	64.2	51	45.7	0	0	---	0.00	30.131 
20:40	64.2	64.2	64.2	51	45.7	0	0	---	0.00	30.132 
20:45	64.0	64.0	64.0	51	45.5	0	0	---	0.00	30.132 
20:50	63.7	63.7	63.7	51	45.2	0	0	---	0.00	30.132 
20:55	63.5	63.5	63.5	53	46.1	0	1	68	0.00	30.134 
21:00	63.7	63.7	63.7	51	45.2	0	2	68	0.00	30.134 
21:05	64.3	64.3	64.3	52	46.3	0	2	68	0.00	30.134 
21:10	64.5	64.5	64.5	52	46.5	0	2	68	0.00	30.132 
21:15	64.7	64.7	64.7	52	46.7	0	2	68	0.00	30.133 
21:20	64.7	64.7	64.7	54	47.7	1	3	68	0.00	30.134 
21:25	64.5	64.5	64.5	56	48.4	1	4	112	0.00	30.135 
21:30	64.2	64.2	64.2	58	49.1	1	2	112	0.00	30.138 
21:35	64.0	64.0	64.0	60	49.8	1	2	90	0.00	30.138 
21:40	63.7	63.7	63.7	62	50.4	1	3	90	0.00	30.138 
21:45	63.4	63.4	63.4	64	51.0	1	4	90	0.00	30.136 
21:50	63.2	63.2	63.2	65	51.2	1	3	112	0.00	30.135 
21:55	63.1	63.1	63.1	65	51.1	1	3	68	0.00	30.137 
22:00	62.9	62.9	62.9	66	51.4	0	2	90	0.00	30.138 
22:05	62.7	62.7	62.7	67	51.6	1	2	68	0.00	30.132 
22:10	62.7	62.7	62.7	68	52.0	1	3	68	0.00	30.130 
22:15	62.7	62.7	62.7	69	52.4	1	3	68	0.00	30.131 
22:20	62.7	62.7	62.7	69	52.4	1	3	90	0.00	30.132 
22:25	62.6	62.6	62.6	70	52.7	1	3	90	0.00	30.132 
22:30	62.6	62.6	62.6	70	52.7	1	3	90	0.00	30.131 
22:35	62.4	62.4	62.4	71	52.9	1	2	90	0.00	30.129 
22:40	62.3	62.3	62.3	72	53.2	0	2	90	0.00	30.128 
22:45	62.3	62.3	62.3	73	53.5	0	2	90	0.00	30.126 
22:50	62.1	62.1	62.1	73	53.3	0	2	90	0.00	30.124 
22:55	62.0	62.0	62.0	74	53.6	0	2	90	0.00	30.125 
23:00	61.8	61.8	61.8	74	53.4	1	2	90	0.00	30.126 
23:05	61.8	61.8	61.8	75	53.8	1	2	90	0.00	30.125 
23:10	61.8	61.8	61.8	75	53.8	1	2	90	0.00	30.124 
23:15	61.6	61.6	61.6	75	53.6	0	2	90	0.00	30.124 
23:20	61.5	61.5	61.5	76	53.9	0	1	90	0.00	30.125 
23:25	61.3	61.3	61.3	76	53.7	0	1	90	0.00	30.125 
23:30	61.0	61.0	61.0	77	53.7	0	1	90	0.00	30.128 
23:35	60.9	60.9	60.9	77	53.6	0	1	90	0.00	30.125 
23:40	60.7	60.7	60.7	78	53.8	0	1	90	0.00	30.128 
23:45	60.5	60.5	60.5	78	53.6	0	0	---	0.00	30.127 
23:50	60.2	60.2	60.2	79	53.7	0	0	---	0.00	30.129 
23:55	60.1	60.1	60.1	80	53.9	0	1	90	0.00	30.129 

CoCoRaHS
IN-AL-39
A2 Web Hosting
Creative Commons License
GoDaddy
Look for:

loaded 2017-12-12 17:03:51 • last modified 2010-11-18 10:43:29
Privacy PolicyDisclaimer
• wx.awcolley.com is powered by PmWiki v.2002016 •
• all content (unless otherwise noted) © 2017 A W Colley